createdAt,value
2016-08-22T00:00:40.123Z,14.6
2016-08-22T00:01:40.086Z,14.58
2016-08-22T00:02:39.354Z,14.58
2016-08-22T00:03:40.023Z,14.58
2016-08-22T00:04:39.292Z,14.58
2016-08-22T00:05:39.259Z,14.65
2016-08-22T00:06:39.241Z,14.55
2016-08-22T00:07:39.897Z,14.57
2016-08-22T00:08:38.464Z,14.62
2016-08-22T00:09:39.128Z,14.55
2016-08-22T00:10:39.097Z,14.64
2016-08-22T00:11:39.063Z,14.55
2016-08-22T00:12:39.729Z,14.62
2016-08-22T00:13:38.994Z,14.57
2016-08-22T00:14:39.665Z,14.55
2016-08-22T00:15:39.622Z,14.6
2016-08-22T00:16:39.593Z,14.58
2016-08-22T00:17:39.559Z,14.6
2016-08-22T00:18:38.133Z,14.58
2016-08-22T00:19:38.795Z,14.6
2016-08-22T00:20:38.762Z,14.57
2016-08-22T00:21:38.728Z,14.58
2016-08-22T00:22:37.998Z,14.55
2016-08-22T00:23:37.979Z,14.6
2016-08-22T00:24:38.636Z,14.54
2016-08-22T00:25:39.291Z,14.45
2016-08-22T00:26:37.866Z,14.52
2016-08-22T00:27:39.220Z,14.52
2016-08-22T00:28:38.511Z,14.58
2016-08-22T00:29:39.160Z,14.58
2016-08-22T00:30:39.128Z,14.54
2016-08-22T00:31:38.398Z,14.54
2016-08-22T00:32:39.057Z,14.55
2016-08-22T00:33:38.329Z,14.58
2016-08-22T00:34:38.990Z,14.61
2016-08-22T00:35:38.259Z,14.6
2016-08-22T00:36:38.925Z,14.58
2016-08-22T00:37:38.199Z,14.58
2016-08-22T00:38:38.165Z,14.61
2016-08-22T00:39:38.130Z,14.62
2016-08-22T00:40:53.003Z,14.62
2016-08-22T00:41:38.764Z,14.55
2016-08-22T00:42:38.727Z,14.61
2016-08-22T00:43:38.011Z,14.58
2016-08-22T00:44:38.664Z,14.52
2016-08-22T00:45:38.635Z,14.58
2016-08-22T00:46:38.592Z,14.65
2016-08-22T00:47:38.573Z,14.58
2016-08-22T00:48:38.526Z,14.61
2016-08-22T00:49:37.803Z,14.62
2016-08-22T00:50:37.768Z,14.61
2016-08-22T00:51:37.739Z,14.61
2016-08-22T00:52:38.411Z,14.58
2016-08-22T00:53:38.388Z,14.62
2016-08-22T00:54:37.632Z,14.61
2016-08-22T00:55:38.313Z,14.6
2016-08-22T00:56:37.568Z,14.54
2016-08-22T00:57:37.534Z,14.57
2016-08-22T00:58:38.196Z,14.6
2016-08-22T00:59:38.158Z,14.57
2016-08-22T01:00:38.132Z,14.64
2016-08-22T01:01:37.415Z,14.57
2016-08-22T01:02:38.082Z,14.58
2016-08-22T01:03:38.048Z,14.6
2016-08-22T01:04:37.304Z,14.54
2016-08-22T01:05:37.273Z,14.57
2016-08-22T01:06:37.239Z,14.62
2016-08-22T01:07:36.508Z,14.58
2016-08-22T01:08:37.874Z,14.51
2016-08-22T01:09:37.840Z,14.58
2016-08-22T01:10:37.808Z,14.52
2016-08-22T01:11:36.379Z,14.58
2016-08-22T01:12:37.740Z,14.57
2016-08-22T01:13:37.708Z,14.58
2016-08-22T01:14:36.972Z,14.55
2016-08-22T01:15:37.652Z,14.58
2016-08-22T01:16:37.605Z,14.58
2016-08-22T01:17:37.569Z,14.6
2016-08-22T01:18:36.836Z,14.52
2016-08-22T01:19:37.506Z,14.5
2016-08-22T01:20:37.474Z,14.54
2016-08-22T01:21:37.442Z,14.46
2016-08-22T01:22:37.397Z,14.43
2016-08-22T01:23:37.368Z,14.46
2016-08-22T01:24:37.336Z,14.47
2016-08-22T01:25:37.304Z,14.51
2016-08-22T01:26:37.272Z,14.51
2016-08-22T01:27:36.540Z,14.47
2016-08-22T01:28:37.209Z,14.46
2016-08-22T01:29:36.475Z,14.47
2016-08-22T01:30:36.446Z,14.45
2016-08-22T01:31:37.105Z,14.46
2016-08-22T01:32:37.071Z,14.39
2016-08-22T01:33:37.037Z,14.37
2016-08-22T01:34:37.006Z,14.39
2016-08-22T01:35:36.980Z,14.36
2016-08-22T01:36:36.239Z,14.35
2016-08-22T01:37:36.209Z,14.39
2016-08-22T01:38:36.883Z,14.42
2016-08-22T01:39:36.147Z,14.39
2016-08-22T01:40:36.110Z,14.45
2016-08-22T01:41:36.077Z,14.35
2016-08-22T01:42:36.741Z,14.4
2016-08-22T01:43:36.722Z,14.37
2016-08-22T01:44:35.979Z,14.36
2016-08-22T01:45:36.643Z,14.43
2016-08-22T01:46:36.610Z,14.39
2016-08-22T01:47:35.877Z,14.37
2016-08-22T01:48:36.540Z,14.29
2016-08-22T01:49:36.508Z,14.28
2016-08-22T01:50:35.787Z,14.33
2016-08-22T01:51:36.441Z,14.29
2016-08-22T01:52:36.407Z,14.32
2016-08-22T01:53:34.979Z,14.27
2016-08-22T01:54:36.342Z,14.29
2016-08-22T01:55:36.317Z,14.33
2016-08-22T01:56:35.575Z,14.37
2016-08-22T01:57:36.248Z,14.25
2016-08-22T01:58:36.215Z,14.27
2016-08-22T01:59:36.177Z,14.25
2016-08-22T02:00:36.146Z,14.22
2016-08-22T02:01:36.103Z,14.32
2016-08-22T02:02:36.080Z,14.25
2016-08-22T02:03:36.039Z,14.22
2016-08-22T02:04:36.008Z,14.18
2016-08-22T02:05:35.988Z,14.2
2016-08-22T02:06:35.245Z,14.24
2016-08-22T02:07:35.905Z,14.22
2016-08-22T02:08:35.879Z,14.24
2016-08-22T02:09:35.150Z,14.24
2016-08-22T02:10:35.112Z,14.24
2016-08-22T02:11:35.078Z,14.2
2016-08-22T02:12:35.043Z,14.15
2016-08-22T02:13:35.718Z,14.12
2016-08-22T02:14:35.675Z,14.14
2016-08-22T02:15:34.945Z,14.07
2016-08-22T02:16:35.606Z,14.15
2016-08-22T02:17:34.186Z,14.18
2016-08-22T02:18:34.843Z,14.14
2016-08-22T02:19:35.510Z,14.12
2016-08-22T02:20:34.778Z,14.12
2016-08-22T02:21:35.442Z,14.14
2016-08-22T02:22:35.403Z,14.12
2016-08-22T02:23:34.675Z,14.12
2016-08-22T02:24:35.341Z,14.14
2016-08-22T02:25:34.611Z,14.07
2016-08-22T02:26:35.272Z,14.18
2016-08-22T02:27:35.235Z,14.15
2016-08-22T02:28:34.508Z,14.14
2016-08-22T02:29:34.479Z,14.14
2016-08-22T02:30:35.139Z,14.14
2016-08-22T02:31:35.117Z,14.09
2016-08-22T02:32:34.372Z,14.12
2016-08-22T02:33:35.044Z,14
2016-08-22T02:34:34.309Z,14.04
2016-08-22T02:35:34.968Z,14.04
2016-08-22T02:36:34.946Z,14.03
2016-08-22T02:37:33.523Z,14.07
2016-08-22T02:38:34.869Z,14.03
2016-08-22T02:39:34.148Z,14
2016-08-22T02:40:34.110Z,13.97
2016-08-22T02:41:34.770Z,13.97
2016-08-22T02:42:34.049Z,13.96
2016-08-22T02:43:34.705Z,13.96
2016-08-22T02:44:33.970Z,13.95
2016-08-22T02:45:33.942Z,13.96
2016-08-22T02:46:34.604Z,13.97
2016-08-22T02:47:33.869Z,13.95
2016-08-22T02:48:34.536Z,13.89
2016-08-22T02:49:34.503Z,13.96
2016-08-22T02:50:34.469Z,13.99
2016-08-22T02:51:34.440Z,13.95
2016-08-22T02:52:34.401Z,13.95
2016-08-22T02:53:33.675Z,13.91
2016-08-22T02:54:34.344Z,13.92
2016-08-22T02:55:34.306Z,13.91
2016-08-22T02:56:34.271Z,13.91
2016-08-22T02:57:34.239Z,13.97
2016-08-22T02:58:32.809Z,13.96
2016-08-22T02:59:34.168Z,13.88
2016-08-22T03:00:34.133Z,13.85
2016-08-22T03:01:33.406Z,13.84
2016-08-22T03:02:34.068Z,13.87
2016-08-22T03:03:33.337Z,13.84
2016-08-22T03:04:33.301Z,13.79
2016-08-22T03:05:33.272Z,13.82
2016-08-22T03:06:33.241Z,13.79
2016-08-22T03:07:33.908Z,13.77
2016-08-22T03:08:33.877Z,13.78
2016-08-22T03:09:33.138Z,13.73
2016-08-22T03:10:33.103Z,13.82
2016-08-22T03:11:33.765Z,13.79
2016-08-22T03:12:33.035Z,13.78
2016-08-22T03:13:33.704Z,13.73
2016-08-22T03:14:32.966Z,13.79
2016-08-22T03:15:32.934Z,13.75
2016-08-22T03:16:32.209Z,13.78
2016-08-22T03:17:33.564Z,13.66
2016-08-22T03:18:32.834Z,13.67
2016-08-22T03:19:33.498Z,13.69
2016-08-22T03:20:32.768Z,13.69
2016-08-22T03:21:33.434Z,13.67
2016-08-22T03:22:32.701Z,13.69
2016-08-22T03:23:33.358Z,13.69
2016-08-22T03:24:33.335Z,13.64
2016-08-22T03:25:32.598Z,13.6
2016-08-22T03:26:32.565Z,13.7
2016-08-22T03:27:33.227Z,13.64
2016-08-22T03:28:33.192Z,13.57
2016-08-22T03:29:31.770Z,13.62
2016-08-22T03:30:32.431Z,13.57
2016-08-22T03:31:32.394Z,13.62
2016-08-22T03:32:32.362Z,13.59
2016-08-22T03:33:32.330Z,13.62
2016-08-22T03:34:32.297Z,13.59
2016-08-22T03:35:32.956Z,13.59
2016-08-22T03:36:32.927Z,13.59
2016-08-22T03:37:32.890Z,13.57
2016-08-22T03:38:31.461Z,13.54
2016-08-22T03:39:32.828Z,13.57
2016-08-22T03:40:32.093Z,13.57
2016-08-22T03:41:32.756Z,13.55
2016-08-22T03:42:32.720Z,13.55
2016-08-22T03:43:32.000Z,13.55
2016-08-22T03:44:31.260Z,13.59
2016-08-22T03:45:31.924Z,13.59
2016-08-22T03:46:32.583Z,13.67
2016-08-22T03:47:32.555Z,13.6
2016-08-22T03:48:32.537Z,13.59
2016-08-22T03:49:31.788Z,13.6
2016-08-22T03:50:32.460Z,13.57
2016-08-22T03:51:31.719Z,13.6
2016-08-22T03:52:32.387Z,13.6
2016-08-22T03:53:32.350Z,13.59
2016-08-22T03:54:32.316Z,13.59
2016-08-22T03:55:32.284Z,13.55
2016-08-22T03:56:32.262Z,13.59
2016-08-22T03:57:31.519Z,13.59
2016-08-22T03:58:31.484Z,13.51
2016-08-22T03:59:32.145Z,13.45
2016-08-22T04:00:30.718Z,13.44
2016-08-22T04:01:32.076Z,13.41
2016-08-22T04:02:32.048Z,13.49
2016-08-22T04:03:32.017Z,13.44
2016-08-22T04:04:31.986Z,13.39
2016-08-22T04:05:30.556Z,13.45
2016-08-22T04:06:30.539Z,13.38
2016-08-22T04:07:31.182Z,13.41
2016-08-22T04:08:31.150Z,13.38
2016-08-22T04:09:30.416Z,13.41
2016-08-22T04:10:31.778Z,13.33
2016-08-22T04:11:31.749Z,13.39
2016-08-22T04:12:31.706Z,13.36
2016-08-22T04:13:30.983Z,13.45
2016-08-22T04:14:31.638Z,13.39
2016-08-22T04:15:30.909Z,13.39
2016-08-22T04:16:30.874Z,13.44
2016-08-22T04:17:31.538Z,13.39
2016-08-22T04:18:30.123Z,13.42
2016-08-22T04:19:30.088Z,13.41
2016-08-22T04:20:31.436Z,13.39
2016-08-22T04:21:30.703Z,13.39
2016-08-22T04:22:31.368Z,13.39
2016-08-22T04:23:30.637Z,13.44
2016-08-22T04:24:31.297Z,13.36
2016-08-22T04:25:30.563Z,13.39
2016-08-22T04:26:30.533Z,13.44
2016-08-22T04:27:29.804Z,13.45
2016-08-22T04:28:30.467Z,13.44
2016-08-22T04:29:31.138Z,13.48
2016-08-22T04:30:30.407Z,13.45
2016-08-22T04:31:31.064Z,13.45
2016-08-22T04:32:31.033Z,13.54
2016-08-22T04:33:30.998Z,13.55
2016-08-22T04:34:30.965Z,13.62
2016-08-22T04:35:30.931Z,13.55
2016-08-22T04:36:30.895Z,13.55
2016-08-22T04:37:30.162Z,13.49
2016-08-22T04:38:30.819Z,13.49
2016-08-22T04:39:30.790Z,13.52
2016-08-22T04:40:30.756Z,13.55
2016-08-22T04:41:30.722Z,13.64
2016-08-22T04:42:30.690Z,13.67
2016-08-22T04:43:30.655Z,13.67
2016-08-22T04:44:30.618Z,13.7
2016-08-22T04:45:29.894Z,13.69
2016-08-22T04:46:30.551Z,13.66
2016-08-22T04:47:30.519Z,13.79
2016-08-22T04:48:30.485Z,13.82
2016-08-22T04:49:29.754Z,13.84
2016-08-22T04:50:29.725Z,13.79
2016-08-22T04:51:29.687Z,13.84
2016-08-22T04:52:30.349Z,13.87
2016-08-22T04:53:29.616Z,13.97
2016-08-22T04:54:30.284Z,13.97
2016-08-22T04:55:28.858Z,14
2016-08-22T04:56:30.218Z,14.03
2016-08-22T04:57:29.485Z,14.07
2016-08-22T04:58:30.155Z,14.2
2016-08-22T04:59:29.427Z,14.15
2016-08-22T05:00:30.094Z,14.24
2016-08-22T05:01:29.362Z,14.28
2016-08-22T05:02:30.014Z,14.35
2016-08-22T05:03:29.982Z,14.39
2016-08-22T05:04:29.251Z,14.36
2016-08-22T05:05:29.921Z,14.45
2016-08-22T05:06:29.200Z,14.6
2016-08-22T05:07:29.847Z,14.68
2016-08-22T05:08:29.817Z,14.77
2016-08-22T05:09:28.390Z,14.77
2016-08-22T05:10:29.753Z,14.91
2016-08-22T05:11:29.019Z,14.92
2016-08-22T05:12:28.983Z,14.92
2016-08-22T05:13:29.656Z,15.06
2016-08-22T05:14:29.618Z,15.29
2016-08-22T05:15:29.585Z,15.76
2016-08-22T05:16:28.858Z,16.2
2016-08-22T05:17:28.836Z,16.61
2016-08-22T05:18:29.488Z,16.96
2016-08-22T05:19:29.459Z,17.38
2016-08-22T05:20:29.430Z,17.71
2016-08-22T05:21:28.697Z,18.07
2016-08-22T05:22:29.360Z,18.44
2016-08-22T05:23:29.327Z,18.76
2016-08-22T05:24:29.293Z,19.04
2016-08-22T05:25:28.571Z,19.37
2016-08-22T05:26:28.556Z,19.55
2016-08-22T05:27:28.513Z,19.71
2016-08-22T05:28:28.483Z,20.05
2016-08-22T05:29:27.768Z,20.26
2016-08-22T05:30:29.121Z,20.47
2016-08-22T05:31:29.091Z,20.76
2016-08-22T05:32:29.056Z,20.92
2016-08-22T05:33:29.023Z,21.12
2016-08-22T05:34:29.001Z,21.34
2016-08-22T05:35:28.277Z,21.5
2016-08-22T05:36:28.245Z,21.72
2016-08-22T05:37:28.246Z,21.99
2016-08-22T05:38:28.187Z,22.12
2016-08-22T05:39:28.869Z,22.33
2016-08-22T05:40:28.831Z,22.52
2016-08-22T05:41:28.110Z,22.85
2016-08-22T05:42:28.774Z,23.04
2016-08-22T05:43:28.055Z,23.35
2016-08-22T05:44:28.726Z,23.46
2016-08-22T05:45:28.691Z,23.72
2016-08-22T05:46:27.973Z,23.88
2016-08-22T05:47:27.951Z,24.1
2016-08-22T05:48:27.919Z,24.34
2016-08-22T05:49:28.585Z,24.64
2016-08-22T05:50:27.866Z,24.76
2016-08-22T05:51:28.534Z,24.95
2016-08-22T05:52:28.505Z,25.28
2016-08-22T05:53:28.487Z,25.54
2016-08-22T05:54:28.480Z,25.73
2016-08-22T05:55:27.039Z,25.99
2016-08-22T05:56:28.410Z,26.33
2016-08-22T05:57:28.383Z,26.66
2016-08-22T05:58:27.663Z,27
2016-08-22T05:59:27.635Z,27.28
2016-08-22T06:00:28.320Z,27.51
2016-08-22T06:01:27.587Z,27.82
2016-08-22T06:02:28.261Z,28.06
2016-08-22T06:03:26.843Z,28.41
2016-08-22T06:04:28.213Z,28.78
2016-08-22T06:05:28.192Z,28.98
2016-08-22T06:06:28.164Z,29.16
2016-08-22T06:07:28.144Z,29.28
2016-08-22T06:08:28.120Z,29.52
2016-08-22T06:09:27.399Z,29.63
2016-08-22T06:10:27.372Z,30.04
2016-08-22T06:11:28.049Z,30.37
2016-08-22T06:12:28.044Z,30.62
2016-08-22T06:13:28.002Z,30.77
2016-08-22T06:14:27.983Z,31.02
2016-08-22T06:15:27.960Z,31.1
2016-08-22T06:16:27.941Z,31.41
2016-08-22T06:17:27.913Z,31.39
2016-08-22T06:18:27.200Z,31.38
2016-08-22T06:19:26.481Z,30.94
2016-08-22T06:20:27.159Z,30.6
2016-08-22T06:21:27.138Z,30.2
2016-08-22T06:22:27.809Z,29.61
2016-08-22T06:23:27.795Z,29.34
2016-08-22T06:24:27.766Z,29
2016-08-22T06:25:27.753Z,28.56
2016-08-22T06:26:27.729Z,28.24
2016-08-22T06:27:27.711Z,27.97
2016-08-22T06:28:27.685Z,27.65
2016-08-22T06:29:27.660Z,27.59
2016-08-22T06:30:26.940Z,27.62
2016-08-22T06:31:27.617Z,27.88
2016-08-22T06:32:26.896Z,27.96
2016-08-22T06:33:26.875Z,28.06
2016-08-22T06:34:27.546Z,28.36
2016-08-22T06:35:26.826Z,28.64
2016-08-22T06:36:27.502Z,28.55
2016-08-22T06:37:27.475Z,28.39
2016-08-22T06:38:27.452Z,28.17
2016-08-22T06:39:27.439Z,27.94
2016-08-22T06:40:27.407Z,27.7
2016-08-22T06:41:26.686Z,27.54
2016-08-22T06:42:26.663Z,27.34
2016-08-22T06:43:27.351Z,27.28
2016-08-22T06:44:27.324Z,26.99
2016-08-22T06:45:27.295Z,26.85
2016-08-22T06:46:26.574Z,26.73
2016-08-22T06:47:26.549Z,26.52
2016-08-22T06:48:25.839Z,26.39
2016-08-22T06:49:27.210Z,26.25
2016-08-22T06:50:27.176Z,26.1
2016-08-22T06:51:26.450Z,25.98
2016-08-22T06:52:26.424Z,25.98
2016-08-22T06:53:27.101Z,25.88
2016-08-22T06:54:26.583Z,25.88
2016-08-22T06:55:26.354Z,25.77
2016-08-22T06:56:27.030Z,25.76
2016-08-22T06:57:26.308Z,25.67
2016-08-22T06:58:26.297Z,25.65
2016-08-22T06:59:26.256Z,26.36
2016-08-22T07:00:26.927Z,27.13
2016-08-22T07:01:26.902Z,28.11
2016-08-22T07:02:26.184Z,28.7
2016-08-22T07:03:25.463Z,29.43
2016-08-22T07:04:26.828Z,30.27
2016-08-22T07:05:26.826Z,30.86
2016-08-22T07:06:26.785Z,31.5
2016-08-22T07:07:26.772Z,31.85
2016-08-22T07:08:25.347Z,32.11
2016-08-22T07:09:26.725Z,32.55
2016-08-22T07:10:26.700Z,32.82
2016-08-22T07:11:25.985Z,33.07
2016-08-22T07:12:25.256Z,33.45
2016-08-22T07:13:26.637Z,33.9
2016-08-22T07:14:26.611Z,34.3
2016-08-22T07:15:25.889Z,34.49
2016-08-22T07:16:26.563Z,34.44
2016-08-22T07:17:26.548Z,34.56
2016-08-22T07:18:25.841Z,34.64
2016-08-22T07:19:26.505Z,34.15
2016-08-22T07:20:25.788Z,33.61
2016-08-22T07:21:26.466Z,33.16
2016-08-22T07:22:26.442Z,32.7
2016-08-22T07:23:25.724Z,32.79
2016-08-22T07:24:25.010Z,33.57
2016-08-22T07:25:24.987Z,34.39
2016-08-22T07:26:24.967Z,35.45
2016-08-22T07:27:26.347Z,36.31
2016-08-22T07:28:25.634Z,36.69
2016-08-22T07:29:26.310Z,37.06
2016-08-22T07:30:26.292Z,37.15
2016-08-22T07:31:25.565Z,37.13
2016-08-22T07:32:25.546Z,36.93
2016-08-22T07:33:25.527Z,36.73
2016-08-22T07:34:25.514Z,36.85
2016-08-22T07:35:25.496Z,37.1
2016-08-22T07:36:24.772Z,37.55
2016-08-22T07:37:26.150Z,37.88
2016-08-22T07:38:26.151Z,38.06
2016-08-22T07:39:26.110Z,38.35
2016-08-22T07:40:26.092Z,38.65
2016-08-22T07:41:26.072Z,39.22
2016-08-22T07:42:25.359Z,39.7
2016-08-22T07:43:24.646Z,39.96
2016-08-22T07:44:24.623Z,40.29
2016-08-22T07:45:25.300Z,40.55
2016-08-22T07:46:25.991Z,40.88
2016-08-22T07:47:25.965Z,41.16
2016-08-22T07:48:25.952Z,41.37
2016-08-22T07:49:25.930Z,41.6
2016-08-22T07:50:25.227Z,41.93
2016-08-22T07:51:25.200Z,42.16
2016-08-22T07:52:25.876Z,42.31
2016-08-22T07:53:25.861Z,42.5
2016-08-22T07:54:25.848Z,42.65
2016-08-22T07:55:24.434Z,42.84
2016-08-22T07:56:25.813Z,42.89
2016-08-22T07:57:25.099Z,43.11
2016-08-22T07:58:25.776Z,43.14
2016-08-22T07:59:25.764Z,43.14
2016-08-22T08:00:25.746Z,43.31
2016-08-22T08:01:25.034Z,43.22
2016-08-22T08:02:25.020Z,43.35
2016-08-22T08:03:25.008Z,43.57
2016-08-22T08:04:25.685Z,43.6
2016-08-22T08:05:24.965Z,43.68
2016-08-22T08:06:24.958Z,43.71
2016-08-22T08:07:24.940Z,43.75
2016-08-22T08:08:24.923Z,43.98
2016-08-22T08:09:24.908Z,44.28
2016-08-22T08:10:25.592Z,44.62
2016-08-22T08:11:25.576Z,44.86
2016-08-22T08:12:24.863Z,45.02
2016-08-22T08:13:24.153Z,45.27
2016-08-22T08:14:25.548Z,45.42
2016-08-22T08:15:24.815Z,45.53
2016-08-22T08:16:24.805Z,45.61
2016-08-22T08:17:24.792Z,45.76
2016-08-22T08:18:25.472Z,45.93
2016-08-22T08:19:24.766Z,46.04
2016-08-22T08:20:24.049Z,46.16
2016-08-22T08:21:25.426Z,46.16
2016-08-22T08:22:24.711Z,46.26
2016-08-22T08:23:25.399Z,45.76
2016-08-22T08:24:24.684Z,44.86
2016-08-22T08:25:24.675Z,44.71
2016-08-22T08:26:25.353Z,44.79
2016-08-22T08:27:25.342Z,44.95
2016-08-22T08:28:24.627Z,45.39
2016-08-22T08:29:25.313Z,45.43
2016-08-22T08:30:24.600Z,45.7
2016-08-22T08:31:24.583Z,46.09
2016-08-22T08:32:24.573Z,46.5
2016-08-22T08:33:24.558Z,46.91
2016-08-22T08:34:24.543Z,46.96
2016-08-22T08:35:24.534Z,47.03
2016-08-22T08:36:23.827Z,47.15
2016-08-22T08:37:24.503Z,47.41
2016-08-22T08:38:25.186Z,47.28
2016-08-22T08:39:25.171Z,45.88
2016-08-22T08:40:24.465Z,44.7
2016-08-22T08:41:25.148Z,44.18
2016-08-22T08:42:25.133Z,44.56
2016-08-22T08:43:25.131Z,44.97
2016-08-22T08:44:25.098Z,45.4
2016-08-22T08:45:25.092Z,45.84
2016-08-22T08:46:25.072Z,46.27
2016-08-22T08:47:25.056Z,46.61
2016-08-22T08:48:23.653Z,46.96
2016-08-22T08:49:25.037Z,47.12
2016-08-22T08:50:25.019Z,47.18
2016-08-22T08:51:24.305Z,47.53
2016-08-22T08:52:24.998Z,47.8
2016-08-22T08:53:24.973Z,47.95
2016-08-22T08:54:24.964Z,48.02
2016-08-22T08:55:24.950Z,47.94
2016-08-22T08:56:24.241Z,47.78
2016-08-22T08:57:24.922Z,47.78
2016-08-22T08:58:24.923Z,47.79
2016-08-22T08:59:24.201Z,47.72
2016-08-22T09:00:24.883Z,47.75
2016-08-22T09:01:24.178Z,48.06
2016-08-22T09:02:24.161Z,48.3
2016-08-22T09:03:24.153Z,48.51
2016-08-22T09:04:24.147Z,48.66
2016-08-22T09:05:24.127Z,48.7
2016-08-22T09:06:24.810Z,48.85
2016-08-22T09:07:24.097Z,48.78
2016-08-22T09:08:24.784Z,48.76
2016-08-22T09:09:24.074Z,48.74
2016-08-22T09:10:24.064Z,48.71
2016-08-22T09:11:24.057Z,48.74
2016-08-22T09:12:24.042Z,48.89
2016-08-22T09:13:24.721Z,49.06
2016-08-22T09:14:24.714Z,49.06
2016-08-22T09:15:24.700Z,49.21
2016-08-22T09:16:24.692Z,49.27
2016-08-22T09:17:23.991Z,49.39
2016-08-22T09:18:24.672Z,49.21
2016-08-22T09:19:23.964Z,49.06
2016-08-22T09:20:23.253Z,49.02
2016-08-22T09:21:23.944Z,49.08
2016-08-22T09:22:23.927Z,49.06
2016-08-22T09:23:23.925Z,49.34
2016-08-22T09:24:23.904Z,49.27
2016-08-22T09:25:23.898Z,49.37
2016-08-22T09:26:23.883Z,49.48
2016-08-22T09:27:23.873Z,49.52
2016-08-22T09:28:23.869Z,49.43
2016-08-22T09:29:24.547Z,49.41
2016-08-22T09:30:23.838Z,49.06
2016-08-22T09:31:24.523Z,48.78
2016-08-22T09:32:24.530Z,48.67
2016-08-22T09:33:24.518Z,48.7
2016-08-22T09:34:23.798Z,48.48
2016-08-22T09:35:24.481Z,48.67
2016-08-22T09:36:23.776Z,48.66
2016-08-22T09:37:24.471Z,48.58
2016-08-22T09:38:23.757Z,48.48
2016-08-22T09:39:23.050Z,48.42
2016-08-22T09:40:23.039Z,48.33
2016-08-22T09:41:24.430Z,48.11
2016-08-22T09:42:24.411Z,47.97
2016-08-22T09:43:23.701Z,47.97
2016-08-22T09:44:24.388Z,47.92
2016-08-22T09:45:22.985Z,47.75
2016-08-22T09:46:23.687Z,47.56
2016-08-22T09:47:24.359Z,47.43
2016-08-22T09:48:24.359Z,47.24
2016-08-22T09:49:24.338Z,47.22
2016-08-22T09:50:24.325Z,47.19
2016-08-22T09:51:24.321Z,47.24
2016-08-22T09:52:22.912Z,47.09
2016-08-22T09:53:23.593Z,47.02
2016-08-22T09:54:22.888Z,46.91
2016-08-22T09:55:24.268Z,46.91
2016-08-22T09:56:24.256Z,46.74
2016-08-22T09:57:24.247Z,46.42
2016-08-22T09:58:23.538Z,46.23
2016-08-22T09:59:24.224Z,46.12
2016-08-22T10:00:24.212Z,45.93
2016-08-22T10:01:22.809Z,45.95
2016-08-22T10:02:23.491Z,45.8
2016-08-22T10:03:23.483Z,45.74
2016-08-22T10:04:24.165Z,45.76
2016-08-22T10:05:22.759Z,45.92
2016-08-22T10:06:22.749Z,45.93
2016-08-22T10:07:23.434Z,45.81
2016-08-22T10:08:24.123Z,45.72
2016-08-22T10:09:24.113Z,45.73
2016-08-22T10:10:24.113Z,45.96
2016-08-22T10:11:23.389Z,46.08
2016-08-22T10:12:24.081Z,46.23
2016-08-22T10:13:24.060Z,46.3
2016-08-22T10:14:24.055Z,46.23
2016-08-22T10:15:24.036Z,46.5
2016-08-22T10:16:24.029Z,46.58
2016-08-22T10:17:23.323Z,46.66
2016-08-22T10:18:24.012Z,46.8
2016-08-22T10:19:23.301Z,46.8
2016-08-22T10:20:23.987Z,46.83
2016-08-22T10:21:23.971Z,46.8
2016-08-22T10:22:23.961Z,46.74
2016-08-22T10:23:23.957Z,46.68
2016-08-22T10:24:23.943Z,46.28
2016-08-22T10:25:23.235Z,44.94
2016-08-22T10:26:23.226Z,43.38
2016-08-22T10:27:23.910Z,41.78
2016-08-22T10:28:22.504Z,40.15
2016-08-22T10:29:23.182Z,38.81
2016-08-22T10:30:23.167Z,37.49
2016-08-22T10:31:23.160Z,36.34
2016-08-22T10:32:23.838Z,35.29
2016-08-22T10:33:23.126Z,34.28
2016-08-22T10:34:23.802Z,33.49
2016-08-22T10:35:23.791Z,32.81
2016-08-22T10:36:23.766Z,32.29
2016-08-22T10:37:23.051Z,32.62
2016-08-22T10:38:23.735Z,32.89
2016-08-22T10:39:23.020Z,32.69
2016-08-22T10:40:23.696Z,32.79
2016-08-22T10:41:23.674Z,33.54
2016-08-22T10:42:22.967Z,34.49
2016-08-22T10:43:22.951Z,35.06
2016-08-22T10:44:22.239Z,35.53
2016-08-22T10:45:23.601Z,36.23
2016-08-22T10:46:23.579Z,37.17
2016-08-22T10:47:22.866Z,37.91
2016-08-22T10:48:22.853Z,38.41
2016-08-22T10:49:23.533Z,38.71
2016-08-22T10:50:23.509Z,38.25
2016-08-22T10:51:23.487Z,38.2
2016-08-22T10:52:23.468Z,38.53
2016-08-22T10:53:23.452Z,38.93
2016-08-22T10:54:22.743Z,39.52
2016-08-22T10:55:23.415Z,40.13
2016-08-22T10:56:23.399Z,40.84
2016-08-22T10:57:22.682Z,41.45
2016-08-22T10:58:23.354Z,41.42
2016-08-22T10:59:23.344Z,40.23
2016-08-22T11:00:22.623Z,38.95
2016-08-22T11:01:23.312Z,37.59
2016-08-22T11:02:23.296Z,36.32
2016-08-22T11:03:22.571Z,35.25
2016-08-22T11:04:22.552Z,34.61
2016-08-22T11:05:23.240Z,34.4
2016-08-22T11:06:23.213Z,34.85
2016-08-22T11:07:23.189Z,35.5
2016-08-22T11:08:23.179Z,35.44
2016-08-22T11:09:23.152Z,34.87
2016-08-22T11:10:23.133Z,33.82
2016-08-22T11:11:23.118Z,32.82
2016-08-22T11:12:23.094Z,31.93
2016-08-22T11:13:23.084Z,31.04
2016-08-22T11:14:23.052Z,30.64
2016-08-22T11:15:23.030Z,30.94
2016-08-22T11:16:23.009Z,31.21
2016-08-22T11:17:22.295Z,31.07
2016-08-22T11:18:22.969Z,30.95
2016-08-22T11:19:22.949Z,31.17
2016-08-22T11:20:22.925Z,31.57
2016-08-22T11:21:22.212Z,31.72
2016-08-22T11:22:22.883Z,31.85
2016-08-22T11:23:21.475Z,32.18
2016-08-22T11:24:22.847Z,32.32
2016-08-22T11:25:22.124Z,32.47
2016-08-22T11:26:22.797Z,32.55
2016-08-22T11:27:22.780Z,32.33
2016-08-22T11:28:22.758Z,32.11
2016-08-22T11:29:21.345Z,31.95
2016-08-22T11:30:22.724Z,31.54
2016-08-22T11:31:22.001Z,30.91
2016-08-22T11:32:22.675Z,30.15
2016-08-22T11:33:22.658Z,29.76
2016-08-22T11:34:22.625Z,29.46
2016-08-22T11:35:22.603Z,29.27
2016-08-22T11:36:21.889Z,29.14
2016-08-22T11:37:22.563Z,28.98
2016-08-22T11:38:21.150Z,28.81
2016-08-22T11:39:21.818Z,28.64
2016-08-22T11:40:21.794Z,28.52
2016-08-22T11:41:21.771Z,28.54
2016-08-22T11:42:22.442Z,28.4
2016-08-22T11:43:21.725Z,28.19
2016-08-22T11:44:22.398Z,27.99
2016-08-22T11:45:22.372Z,27.7
2016-08-22T11:46:22.349Z,27.5
2016-08-22T11:47:21.631Z,27.51
2016-08-22T11:48:22.318Z,27.32
2016-08-22T11:49:22.279Z,27.14
2016-08-22T11:50:21.557Z,27.02
2016-08-22T11:51:21.534Z,26.69
2016-08-22T11:52:22.211Z,26.57
2016-08-22T11:53:21.487Z,26.25
2016-08-22T11:54:21.464Z,25.87
2016-08-22T11:55:21.439Z,25.64
2016-08-22T11:56:21.415Z,25.51
2016-08-22T11:57:22.081Z,25.45
2016-08-22T11:58:22.069Z,25.38
2016-08-22T11:59:21.346Z,25.23
2016-08-22T12:00:22.015Z,24.85
2016-08-22T12:01:21.985Z,24.64
2016-08-22T12:02:21.963Z,24.45
2016-08-22T12:03:21.944Z,24.4
2016-08-22T12:04:21.231Z,24.4
2016-08-22T12:05:21.882Z,24.42
2016-08-22T12:06:21.167Z,24.42
2016-08-22T12:07:21.137Z,24.39
2016-08-22T12:08:21.806Z,24.4
2016-08-22T12:09:21.088Z,24.2
2016-08-22T12:10:21.062Z,24.1
2016-08-22T12:11:21.036Z,23.83
2016-08-22T12:12:21.703Z,23.68
2016-08-22T12:13:21.700Z,23.55
2016-08-22T12:14:21.651Z,23.6
2016-08-22T12:15:20.932Z,23.65
2016-08-22T12:16:21.601Z,23.75
2016-08-22T12:17:21.581Z,23.78
2016-08-22T12:18:21.553Z,23.8
2016-08-22T12:19:21.530Z,23.91
2016-08-22T12:20:21.493Z,23.9
2016-08-22T12:21:21.467Z,23.95
2016-08-22T12:22:21.458Z,23.9
2016-08-22T12:23:20.730Z,23.85
2016-08-22T12:24:21.392Z,23.88
2016-08-22T12:25:21.365Z,23.88
2016-08-22T12:26:21.336Z,24
2016-08-22T12:27:20.615Z,24.05
2016-08-22T12:28:21.282Z,24.06
2016-08-22T12:29:21.259Z,24
2016-08-22T12:30:20.534Z,24
2016-08-22T12:31:21.212Z,24.02
2016-08-22T12:32:21.177Z,24.1
2016-08-22T12:33:19.756Z,24.03
2016-08-22T12:34:21.129Z,24.06
2016-08-22T12:35:19.711Z,24.1
2016-08-22T12:36:21.073Z,24.02
2016-08-22T12:37:21.044Z,24.06
2016-08-22T12:38:21.022Z,24.05
2016-08-22T12:39:20.988Z,24.05
2016-08-22T12:40:20.964Z,24
2016-08-22T12:41:20.942Z,24
2016-08-22T12:42:20.906Z,24.06
2016-08-22T12:43:20.896Z,23.95
2016-08-22T12:44:20.173Z,23.98
2016-08-22T12:45:20.133Z,23.87
2016-08-22T12:46:20.821Z,23.91
2016-08-22T12:47:20.081Z,23.88
2016-08-22T12:48:19.361Z,23.78
2016-08-22T12:49:19.337Z,23.73
2016-08-22T12:50:20.698Z,23.78
2016-08-22T12:51:20.672Z,23.78
2016-08-22T12:52:19.953Z,23.72
2016-08-22T12:53:20.616Z,23.75
2016-08-22T12:54:20.589Z,23.69
2016-08-22T12:55:20.561Z,23.69
2016-08-22T12:56:19.838Z,23.7